KBHM/BHM METAR and TAF weather

Enter ICAO airport designator
Station Type Date Time Source
KBHM METAR 2021/07/29 02:53 UTC NOAA

KBHM 290253Z 01003KT 10SM CLR 27/23 A3007 RMK AO2 SLPNO T02670233 53017


Station Type Date Time Source
KBHM Decoded METAR 2021/07/29 02:53 UTC NOAA

BIRMINGHAM INT'L AIRPORT, AL, United States (KBHM) 33-34N 086-45W 197M
Jul 28, 2021 - 10:53 PM EDT / 2021.07.29 0253 UTC
Wind: from the N (010 degrees) at 3 MPH (3 KT):0
Visibility: 10 mile(s):0
Sky conditions: clear
Temperature: 80.1 F (26.7 C)
Dew Point: 73.9 F (23.3 C)
Relative Humidity: 81%
Pressure (altimeter): 30.07 in. Hg (1018 hPa)
Pressure tendency: 0.05 inches (1.7 hPa) higher than three hours ago
ob: KBHM 290253Z 01003KT 10SM CLR 27/23 A3007 RMK AO2 SLPNO T02670233 53017
cycle: 3

Station Type Date Time Source
KBHM TAF 2021/07/28 18:24 UTC NOAA

TAF KBHM 281721Z 2818/2918 VRB03KT P6SM FEW050 SCT250
FM290300 00000KT P6SM FEW250

Example: see airport list